Time;durP1;ratioP1;P1;durP2;ratioP2;P2;SDS_P1;SDS_P2;PMS_P1;PMS_P2;Temp;Humidity;BMP_temperature;BMP_pressure;BME280_temperature;BME280_humidity;BME280_pressure;Samples;Min_cycle;Max_cycle;Signal;HPM_P1;HPM_P2
2022/06/11 00:01:08;;;;;;;10.80;5.53;;;20.70;99.90;;;;;;5024721;28;20048;-87
2022/06/11 00:03:34;;;;;;;11.82;6.70;;;20.70;99.90;;;;;;5039086;28;20014;-87
2022/06/11 00:06:02;;;;;;;10.65;5.88;;;20.70;99.90;;;;;;5039315;28;20014;-87
2022/06/11 00:08:27;;;;;;;9.88;6.13;;;20.60;99.90;;;;;;5036880;28;20020;-87
2022/06/11 00:10:53;;;;;;;10.75;6.00;;;20.60;99.90;;;;;;5040042;28;20018;-87
2022/06/11 00:13:22;;;;;;;10.63;5.68;;;20.60;99.90;;;;;;5034989;28;20017;-88
2022/06/11 00:15:52;;;;;;;10.63;6.00;;;20.60;99.90;;;;;;5015606;28;20037;-87
2022/06/11 00:18:20;;;;;;;9.50;5.80;;;20.60;99.90;;;;;;5023278;28;20081;-87
2022/06/11 00:20:45;;;;;;;11.80;6.57;;;20.60;99.90;;;;;;5015310;28;20408;-87
2022/06/11 00:23:13;;;;;;;16.00;6.95;;;20.60;99.90;;;;;;5016505;28;20117;-87
2022/06/11 00:25:39;;;;;;;14.05;6.30;;;20.60;99.90;;;;;;5033552;28;20105;-88
2022/06/11 00:28:06;;;;;;;11.02;6.30;;;20.60;99.90;;;;;;5032226;28;20429;-88
2022/06/11 00:30:32;;;;;;;8.73;6.00;;;20.60;99.90;;;;;;5007949;28;20033;-88
2022/06/11 00:32:58;;;;;;;9.57;5.60;;;20.60;99.90;;;;;;5016166;28;20483;-88
2022/06/11 00:35:26;;;;;;;13.10;5.97;;;20.50;99.90;;;;;;5016069;28;20108;-88
2022/06/11 00:37:54;;;;;;;9.27;5.82;;;20.40;99.90;;;;;;5033652;28;20021;-88
2022/06/11 00:40:24;;;;;;;9.88;5.20;;;20.40;99.90;;;;;;5016026;28;20022;-88
2022/06/11 00:42:50;;;;;;;10.63;5.07;;;20.30;99.90;;;;;;5015756;28;20026;-88
2022/06/11 00:45:31;;;;;;;7.78;4.03;;;20.30;99.90;;;;;;5000253;28;20038;-88
2022/06/11 00:48:00;;;;;;;7.75;4.20;;;20.20;99.90;;;;;;5016506;28;20017;-88
2022/06/11 00:50:33;;;;;;;6.70;4.22;;;20.10;99.90;;;;;;5016536;28;20044;-88
2022/06/11 00:53:00;;;;;;;8.20;4.22;;;20.10;99.90;;;;;;5033272;28;20141;-89
2022/06/11 00:55:36;;;;;;;6.55;3.70;;;20.00;99.90;;;;;;5021785;28;20390;-88
2022/06/11 00:58:18;;;;;;;8.13;4.32;;;20.00;99.90;;;;;;5033553;28;20018;-88
2022/06/11 01:00:50;;;;;;;6.22;3.88;;;20.00;99.90;;;;;;5031576;28;20029;-88
2022/06/11 01:03:26;;;;;;;6.30;3.80;;;20.00;99.90;;;;;;5033905;28;20036;-88
2022/06/11 01:06:15;;;;;;;7.47;3.95;;;20.00;99.90;;;;;;5029100;28;20500;-88
2022/06/11 01:08:43;;;;;;;8.23;3.83;;;19.90;99.90;;;;;;5031402;28;20017;-88
2022/06/11 01:11:40;;;;;;;5.38;3.80;;;19.90;99.90;;;;;;5033522;28;20108;-89
2022/06/11 01:14:11;;;;;;;6.45;3.95;;;19.90;99.90;;;;;;5015860;28;20037;-88
2022/06/11 01:16:45;;;;;;;;;;;19.90;99.90;;;;;;5012880;28;20029;-88
2022/06/11 01:19:42;;;;;;;10.50;4.10;;;19.90;99.90;;;;;;5005740;28;19995;-88
2022/06/11 01:22:16;;;;;;;6.03;3.97;;;19.90;99.90;;;;;;5032996;28;20497;-87
2022/06/11 01:25:08;;;;;;;9.32;3.58;;;19.90;99.90;;;;;;5015419;28;20045;-87
2022/06/11 01:27:58;;;;;;;6.80;3.22;;;19.90;99.90;;;;;;5015543;28;20029;-88
2022/06/11 01:30:31;;;;;;;6.83;3.73;;;19.80;99.90;;;;;;5032174;28;20034;-88
2022/06/11 01:33:19;;;;;;;9.30;4.03;;;19.80;99.90;;;;;;5027061;28;20056;-88
2022/06/11 01:36:08;;;;;;;9.00;4.63;;;19.80;99.90;;;;;;5025320;28;20083;-88
2022/06/11 01:38:48;;;;;;;9.05;4.32;;;19.70;99.90;;;;;;5019364;28;20432;-88
2022/06/11 01:41:39;;;;;;;9.02;4.07;;;19.70;99.90;;;;;;5019308;28;20060;-88
2022/06/11 01:44:14;;;;;;;7.30;4.20;;;19.60;99.90;;;;;;5015800;28;20028;-88
2022/06/11 01:46:45;;;;;;;7.22;4.95;;;19.50;99.90;;;;;;5018757;28;20026;-88
2022/06/11 01:49:23;;;;;;;7.75;4.68;;;19.50;99.90;;;;;;5006054;28;20461;-88
2022/06/11 01:52:13;;;;;;;10.40;4.60;;;19.40;99.90;;;;;;5018978;28;20033;-88
2022/06/11 01:54:59;;;;;;;8.55;4.75;;;19.40;99.90;;;;;;5024824;28;20025;-88
2022/06/11 01:58:03;;;;;;;9.90;5.05;;;19.40;99.90;;;;;;5035637;28;20034;-88
2022/06/11 02:01:11;;;;;;;9.98;5.43;;;19.30;99.90;;;;;;5017658;28;20056;-88
2022/06/11 02:03:54;;;;;;;9.35;4.90;;;19.30;99.90;;;;;;5034529;28;20495;-88
2022/06/11 02:06:47;;;;;;;9.23;5.38;;;19.30;99.90;;;;;;5018504;28;20022;-88
2022/06/11 02:09:30;;;;;;;6.70;4.90;;;19.20;99.90;;;;;;5018931;28;20028;-88
2022/06/11 02:12:12;;;;;;;6.82;4.95;;;19.20;99.90;;;;;;5036295;28;20033;-88
2022/06/11 02:15:12;;;;;;;7.47;4.78;;;19.10;99.90;;;;;;5018918;28;20026;-88
2022/06/11 02:17:42;;;;;;;6.30;4.75;;;19.10;99.90;;;;;;5018641;28;20457;-88
2022/06/11 02:20:16;;;;;;;9.47;4.07;;;19.10;99.90;;;;;;5035739;28;20479;-87
2022/06/11 02:22:49;;;;;;;7.50;4.50;;;19.00;99.90;;;;;;5017406;28;20021;-88
2022/06/11 02:25:24;;;;;;;9.20;4.50;;;19.00;99.90;;;;;;5017727;28;20021;-88
2022/06/11 02:27:55;;;;;;;8.02;4.63;;;18.90;99.90;;;;;;5035830;28;20492;-88
2022/06/11 02:30:24;;;;;;;7.88;4.30;;;18.90;99.90;;;;;;5036095;28;20036;-88
2022/06/11 02:32:51;;;;;;;6.93;4.37;;;18.90;99.90;;;;;;5018293;28;20354;-88
2022/06/11 02:35:53;;;;;;;8.52;5.10;;;18.90;99.90;;;;;;5018194;28;20036;-88
2022/06/11 02:38:21;;;;;;;9.60;4.85;;;18.90;99.90;;;;;;5037771;28;20024;-88
2022/06/11 02:40:52;;;;;;;7.88;4.68;;;18.90;99.90;;;;;;5019106;28;20381;-88
2022/06/11 02:43:18;;;;;;;6.85;4.28;;;18.90;99.90;;;;;;5018242;28;20484;-88
2022/06/11 02:45:44;;;;;;;6.78;4.53;;;18.90;99.90;;;;;;5018471;28;20017;-88
2022/06/11 02:48:12;;;;;;;8.30;4.78;;;18.80;99.90;;;;;;4998587;28;20048;-88
2022/06/11 02:50:38;;;;;;;9.40;5.13;;;18.80;99.90;;;;;;5014737;28;21777;-88
2022/06/11 02:53:06;;;;;;;8.00;4.70;;;18.80;99.90;;;;;;5017603;28;20033;-88
2022/06/11 02:55:33;;;;;;;9.18;4.70;;;18.80;99.90;;;;;;5018032;28;20017;-88
2022/06/11 02:57:59;;;;;;;7.68;5.03;;;18.70;99.90;;;;;;5017746;28;20014;-89
2022/06/11 03:00:30;;;;;;;8.15;4.82;;;18.70;99.90;;;;;;5016390;28;20028;-88
2022/06/11 03:02:56;;;;;;;7.53;4.95;;;18.70;99.90;;;;;;5035220;28;20033;-87
2022/06/11 03:05:26;;;;;;;10.63;5.00;;;18.60;99.90;;;;;;5035543;28;20033;-88
2022/06/11 03:07:55;;;;;;;7.63;4.88;;;18.60;99.90;;;;;;5017382;28;20026;-88
2022/06/11 03:10:23;;;;;;;7.80;4.65;;;18.50;99.90;;;;;;5017472;28;20065;-88
2022/06/11 03:12:49;;;;;;;8.45;4.72;;;18.50;99.90;;;;;;5017299;28;20026;-87
2022/06/11 03:15:17;;;;;;;10.77;4.85;;;18.40;99.90;;;;;;5017333;28;20060;-88
2022/06/11 03:17:44;;;;;;;11.88;5.15;;;18.40;99.90;;;;;;5017073;28;20037;-87
2022/06/11 03:20:10;;;;;;;6.13;4.00;;;18.40;99.90;;;;;;5014866;28;20025;-87
2022/06/11 03:22:37;;;;;;;7.30;4.38;;;18.40;99.90;;;;;;5017405;28;20075;-88
2022/06/11 03:25:04;;;;;;;6.05;4.60;;;18.30;99.90;;;;;;5033785;28;20108;-88
2022/06/11 03:27:30;;;;;;;8.70;4.35;;;18.30;99.90;;;;;;5000775;28;20107;-88
2022/06/11 03:29:55;;;;;;;9.85;4.57;;;18.30;99.90;;;;;;5030983;28;20029;-88
2022/06/11 03:32:21;;;;;;;9.57;4.70;;;18.20;99.90;;;;;;5017187;28;20095;-88
2022/06/11 03:34:47;;;;;;;6.53;4.10;;;18.20;99.90;;;;;;5017083;28;20135;-88
2022/06/11 03:37:13;;;;;;;6.50;4.47;;;18.20;99.90;;;;;;5016957;28;20041;-88
2022/06/11 03:39:40;;;;;;;9.15;4.20;;;18.10;99.90;;;;;;5017332;28;20029;-88
2022/06/11 03:42:08;;;;;;;8.32;4.05;;;18.10;99.90;;;;;;5003269;28;20044;-87
2022/06/11 03:44:35;;;;;;;6.97;4.38;;;18.10;99.90;;;;;;5017191;28;20030;-88
2022/06/11 03:47:01;;;;;;;8.73;4.13;;;18.10;99.90;;;;;;5016780;28;20020;-88
2022/06/11 03:49:27;;;;;;;8.43;4.30;;;18.10;99.90;;;;;;5017145;28;20030;-88
2022/06/11 03:51:54;;;;;;;7.72;4.80;;;18.00;99.90;;;;;;5017054;28;20106;-87
2022/06/11 03:54:20;;;;;;;8.55;4.30;;;18.00;99.90;;;;;;5034932;28;20024;-88
2022/06/11 03:56:48;;;;;;;8.57;4.07;;;18.00;99.90;;;;;;5016857;28;20029;-88
2022/06/11 03:59:14;;;;;;;7.57;4.13;;;18.00;99.90;;;;;;5034686;28;20018;-87
2022/06/11 04:01:42;;;;;;;5.68;3.95;;;18.00;99.90;;;;;;5017175;28;20406;-88
2022/06/11 04:04:11;;;;;;;7.72;3.83;;;18.00;99.90;;;;;;5016622;28;20472;-88
2022/06/11 04:06:49;;;;;;;6.28;3.83;;;18.00;99.90;;;;;;5016852;28;20029;-88
2022/06/11 04:09:19;;;;;;;7.25;3.75;;;18.00;99.90;;;;;;5017250;28;20020;-88
2022/06/11 04:11:46;;;;;;;7.78;4.05;;;18.00;99.90;;;;;;5016861;28;20492;-86
2022/06/11 04:14:12;;;;;;;6.60;3.65;;;18.00;99.90;;;;;;5016761;28;20099;-87
2022/06/11 04:16:44;;;;;;;8.20;3.92;;;18.00;99.90;;;;;;5016993;28;20030;-87
2022/06/11 04:19:17;;;;;;;7.05;3.85;;;18.00;99.90;;;;;;5032971;28;20025;-88
2022/06/11 04:21:43;;;;;;;8.93;3.85;;;18.00;99.90;;;;;;5016912;28;20049;-87
2022/06/11 04:24:10;;;;;;;10.68;3.53;;;18.00;99.90;;;;;;5017311;28;20061;-88
2022/06/11 04:26:39;;;;;;;9.40;3.53;;;18.00;99.90;;;;;;5009733;28;20032;-87
2022/06/11 04:29:07;;;;;;;8.45;3.70;;;18.00;99.90;;;;;;5005461;28;20052;-88
2022/06/11 04:31:36;;;;;;;7.15;3.10;;;18.00;99.90;;;;;;5014617;28;20041;-87
2022/06/11 04:34:02;;;;;;;15.88;3.58;;;17.90;99.90;;;;;;5034207;28;20033;-87
2022/06/11 04:36:30;;;;;;;6.60;2.80;;;17.90;99.90;;;;;;5000350;28;20114;-87
2022/06/11 04:38:56;;;;;;;7.82;3.70;;;17.90;99.90;;;;;;5014427;28;20033;-87
2022/06/11 04:41:22;;;;;;;8.38;3.47;;;17.90;99.90;;;;;;5014931;28;20034;-87
2022/06/11 04:43:48;;;;;;;10.45;3.55;;;17.90;99.90;;;;;;5013269;28;20022;-88
2022/06/11 04:46:15;;;;;;;9.85;3.60;;;18.00;99.90;;;;;;5024396;28;20030;-88
2022/06/11 04:48:42;;;;;;;10.45;3.75;;;17.90;99.90;;;;;;4989281;28;20108;-88
2022/06/11 04:51:08;;;;;;;8.55;3.30;;;17.90;99.90;;;;;;5015822;28;20385;-87
2022/06/11 04:53:34;;;;;;;7.78;3.47;;;17.90;99.90;;;;;;5016682;28;20021;-88
2022/06/11 04:56:00;;;;;;;8.82;3.17;;;17.90;99.90;;;;;;4991522;28;20036;-88
2022/06/11 04:58:26;;;;;;;9.07;2.83;;;17.90;99.90;;;;;;5019557;28;20053;-88
2022/06/11 05:00:52;;;;;;;6.90;2.42;;;17.80;99.90;;;;;;5036909;28;20029;-88
2022/06/11 05:03:18;;;;;;;8.40;2.97;;;17.90;99.90;;;;;;5017467;28;20037;-87
2022/06/11 05:05:44;;;;;;;8.75;2.97;;;17.90;99.90;;;;;;5014089;28;20489;-88
2022/06/11 05:08:12;;;;;;;9.65;3.08;;;17.90;99.90;;;;;;5017101;28;20033;-87
2022/06/11 05:10:39;;;;;;;9.15;2.80;;;17.80;99.90;;;;;;5036952;28;20025;-88
2022/06/11 05:13:07;;;;;;;8.52;2.65;;;17.90;99.90;;;;;;5039253;28;20032;-88
2022/06/11 05:15:34;;;;;;;8.85;2.75;;;17.80;99.90;;;;;;5022484;28;20045;-88
2022/06/11 05:18:03;;;;;;;9.18;2.88;;;17.80;99.90;;;;;;5039691;28;20021;-87
2022/06/11 05:20:31;;;;;;;10.20;3.25;;;17.80;99.90;;;;;;5028920;28;20038;-87
2022/06/11 05:22:57;;;;;;;8.10;3.03;;;17.80;99.90;;;;;;5020719;28;20037;-87
2022/06/11 05:25:23;;;;;;;13.07;3.30;;;17.80;99.90;;;;;;5020851;28;20072;-87
2022/06/11 05:27:49;;;;;;;8.55;2.70;;;17.90;99.90;;;;;;5039636;28;20131;-87
2022/06/11 05:30:24;;;;;;;11.98;3.38;;;17.90;99.90;;;;;;5018950;28;20060;-88
2022/06/11 05:32:50;;;;;;;12.60;2.70;;;17.90;99.90;;;;;;5021379;28;20029;-88
2022/06/11 05:35:20;;;;;;;12.75;2.80;;;17.90;99.90;;;;;;5004726;28;20029;-88
2022/06/11 05:37:49;;;;;;;11.27;2.80;;;17.90;99.90;;;;;;5038092;28;20022;-88
2022/06/11 05:40:18;;;;;;;14.32;3.28;;;18.00;99.90;;;;;;5017732;28;20296;-88
2022/06/11 05:42:47;;;;;;;14.75;2.90;;;18.00;99.90;;;;;;5021179;28;20450;-88
2022/06/11 05:45:20;;;;;;;13.55;2.67;;;17.90;99.90;;;;;;5038165;28;20018;-88
2022/06/11 05:47:47;;;;;;;12.40;3.03;;;18.00;99.90;;;;;;5019694;28;20022;-88
2022/06/11 05:50:21;;;;;;;13.50;2.60;;;18.00;99.90;;;;;;5037843;28;20040;-88
2022/06/11 05:52:47;;;;;;;12.98;3.22;;;18.00;99.90;;;;;;5003910;28;20101;-88
2022/06/11 05:55:17;;;;;;;12.32;3.33;;;18.00;99.90;;;;;;5009259;28;20483;-89
2022/06/11 05:57:45;;;;;;;11.15;2.70;;;18.00;99.90;;;;;;5020617;28;20028;-88
2022/06/11 06:00:14;;;;;;;13.65;2.88;;;18.00;99.90;;;;;;5013646;28;20040;-88
2022/06/11 06:02:40;;;;;;;14.07;3.47;;;18.10;99.90;;;;;;5015909;28;20025;-88
2022/06/11 06:05:11;;;;;;;20.40;3.97;;;18.10;99.90;;;;;;5039342;28;20017;-88
2022/06/11 06:07:36;;;;;;;17.45;3.40;;;18.10;99.90;;;;;;5019466;28;20034;-88
2022/06/11 06:10:03;;;;;;;16.15;4.03;;;18.10;99.90;;;;;;5017687;28;20061;-88
2022/06/11 06:12:33;;;;;;;13.80;3.58;;;18.10;99.90;;;;;;4996834;28;20029;-88
2022/06/11 06:15:20;;;;;;;14.02;4.00;;;18.20;99.90;;;;;;5021543;28;20022;-88
2022/06/11 06:17:48;;;;;;;16.92;4.60;;;18.20;99.90;;;;;;5019022;28;20029;-87
2022/06/11 06:20:15;;;;;;;16.50;3.85;;;18.30;99.90;;;;;;5007350;28;20025;-88
2022/06/11 06:22:42;;;;;;;11.70;2.80;;;18.30;99.90;;;;;;5022143;28;20146;-87
2022/06/11 06:25:13;;;;;;;14.27;3.78;;;18.30;99.90;;;;;;5021974;28;20010;-88
2022/06/11 06:27:46;;;;;;;13.00;3.25;;;18.40;99.90;;;;;;5022355;28;20117;-88
2022/06/11 06:30:12;;;;;;;14.77;2.85;;;18.40;99.90;;;;;;5021865;28;20053;-87
2022/06/11 06:32:38;;;;;;;17.48;4.07;;;18.40;99.90;;;;;;5024411;28;20021;-88
2022/06/11 06:35:04;;;;;;;14.15;3.17;;;18.50;99.90;;;;;;5012086;28;20022;-88
2022/06/11 06:37:32;;;;;;;10.63;3.30;;;18.50;99.90;;;;;;5027700;28;20096;-89
2022/06/11 06:39:59;;;;;;;14.02;3.20;;;18.60;99.90;;;;;;5030884;28;20021;-87
2022/06/11 06:42:25;;;;;;;16.20;3.90;;;18.60;99.90;;;;;;5031671;28;20029;-88
2022/06/11 06:44:50;;;;;;;15.60;3.83;;;18.70;99.90;;;;;;5006036;28;20080;-87
2022/06/11 06:47:16;;;;;;;15.25;3.92;;;18.70;99.90;;;;;;5041322;28;20057;-86
2022/06/11 06:49:41;;;;;;;12.35;3.47;;;18.80;99.90;;;;;;5030047;28;20088;-87
2022/06/11 06:52:07;;;;;;;15.85;3.60;;;18.80;99.90;;;;;;5034881;28;20030;-87
2022/06/11 06:54:35;;;;;;;18.80;3.92;;;18.90;99.90;;;;;;5029871;28;20029;-87
2022/06/11 06:57:01;;;;;;;16.67;3.33;;;18.90;99.90;;;;;;5012218;28;20022;-87
2022/06/11 06:59:28;;;;;;;13.60;3.25;;;19.00;99.90;;;;;;5034410;28;20037;-88
2022/06/11 07:01:53;;;;;;;13.30;3.30;;;19.10;99.90;;;;;;5006077;28;20124;-87
2022/06/11 07:04:19;;;;;;;12.68;3.35;;;19.10;99.90;;;;;;4994212;28;20026;-88
2022/06/11 07:06:45;;;;;;;17.58;3.80;;;19.20;99.90;;;;;;5023883;28;20104;-88
2022/06/11 07:09:13;;;;;;;12.00;3.05;;;19.30;99.90;;;;;;5006549;28;20033;-87
2022/06/11 07:11:39;;;;;;;17.60;3.95;;;19.40;99.90;;;;;;5019389;28;20038;-89
2022/06/11 07:14:04;;;;;;;14.30;3.83;;;19.40;99.90;;;;;;5025006;28;20036;-87
2022/06/11 07:16:44;;;;;;;14.55;4.03;;;19.50;99.90;;;;;;5053619;28;20104;-88
2022/06/11 07:19:32;;;;;;;15.15;3.60;;;19.60;99.90;;;;;;5030942;28;20029;-87
2022/06/11 07:22:04;;;;;;;14.13;3.65;;;19.70;99.90;;;;;;5036371;28;20057;-87
2022/06/11 07:24:37;;;;;;;13.60;3.58;;;19.70;99.90;;;;;;5057208;28;20033;-89
2022/06/11 07:27:06;;;;;;;16.10;3.45;;;19.80;99.90;;;;;;5040485;28;20040;-88
2022/06/11 07:29:42;;;;;;;15.35;3.95;;;19.80;99.90;;;;;;5058203;28;20040;-87
2022/06/11 07:32:15;;;;;;;14.68;3.78;;;19.90;99.90;;;;;;5039192;28;20041;-88
2022/06/11 07:34:42;;;;;;;14.27;3.55;;;20.00;99.90;;;;;;5032963;28;20021;-88
2022/06/11 07:37:07;;;;;;;13.35;3.75;;;20.10;99.90;;;;;;5020054;28;20044;-88
2022/06/11 07:39:34;;;;;;;13.05;3.50;;;20.10;99.90;;;;;;5036704;28;20021;-88
2022/06/11 07:41:59;;;;;;;16.52;4.95;;;20.20;99.90;;;;;;5036292;28;20079;-88
2022/06/11 07:44:25;;;;;;;11.90;3.10;;;20.30;99.90;;;;;;5000680;28;20037;-88
2022/06/11 07:46:51;;;;;;;14.25;3.22;;;20.30;99.90;;;;;;5017148;28;20036;-88
2022/06/11 07:49:17;;;;;;;16.73;3.80;;;20.40;99.90;;;;;;5003378;28;20105;-88
2022/06/11 07:51:43;;;;;;;11.45;3.45;;;20.50;99.90;;;;;;5031012;28;20026;-88
2022/06/11 07:54:09;;;;;;;18.67;3.75;;;20.60;99.90;;;;;;5018555;28;20017;-88
2022/06/11 07:56:37;;;;;;;16.00;3.10;;;20.60;99.90;;;;;;5019834;28;20021;-88
2022/06/11 07:59:03;;;;;;;14.80;3.83;;;20.70;99.90;;;;;;5036363;28;20022;-89
2022/06/11 08:01:29;;;;;;;15.80;3.67;;;20.80;99.90;;;;;;5017857;28;20030;-89
2022/06/11 08:03:55;;;;;;;12.00;3.50;;;20.90;99.90;;;;;;5015069;28;20040;-89
2022/06/11 08:06:24;;;;;;;14.25;3.35;;;21.00;99.90;;;;;;5019035;28;20555;-88
2022/06/11 08:08:50;;;;;;;15.07;3.65;;;21.10;99.90;;;;;;5031167;28;20050;-88
2022/06/11 08:11:16;;;;;;;15.77;4.03;;;21.10;99.70;;;;;;5001317;28;20033;-89
2022/06/11 08:13:42;;;;;;;14.05;2.70;;;21.20;98.90;;;;;;5015376;28;20040;-89
2022/06/11 08:16:08;;;;;;;17.52;3.92;;;21.30;98.50;;;;;;5014761;28;20081;-89
2022/06/11 08:18:34;;;;;;;14.10;3.17;;;21.30;98.10;;;;;;5008895;28;20022;-90
2022/06/11 08:21:03;;;;;;;12.75;3.28;;;21.40;97.90;;;;;;5018403;28;20087;-89
2022/06/11 08:23:32;;;;;;;16.17;4.15;;;21.50;97.80;;;;;;5004081;28;20068;-89
2022/06/11 08:25:57;;;;;;;13.63;3.20;;;21.60;97.80;;;;;;5016794;28;20036;-88
2022/06/11 08:28:24;;;;;;;12.85;3.65;;;21.60;97.40;;;;;;5023799;28;20022;-88
2022/06/11 08:30:51;;;;;;;12.10;3.90;;;21.70;97.30;;;;;;5024318;28;20042;-88
2022/06/11 08:33:20;;;;;;;15.15;3.38;;;21.80;96.30;;;;;;5027360;28;20045;-88
2022/06/11 08:35:47;;;;;;;13.43;3.35;;;21.80;96.10;;;;;;5043987;28;20041;-88
2022/06/11 08:38:13;;;;;;;12.70;2.90;;;21.90;95.90;;;;;;5030773;28;20025;-89
2022/06/11 08:40:46;;;;;;;10.23;3.03;;;21.90;95.40;;;;;;5026126;28;20032;-88
2022/06/11 08:43:36;;;;;;;10.98;3.03;;;22.00;94.40;;;;;;5028099;28;20029;-88
2022/06/11 08:46:08;;;;;;;12.57;3.45;;;22.00;94.60;;;;;;5015997;28;20067;-89
2022/06/11 08:48:47;;;;;;;17.10;3.60;;;22.10;94.60;;;;;;5024459;28;20025;-88
2022/06/11 08:51:42;;;;;;;11.85;2.90;;;22.20;95.20;;;;;;5023764;28;20026;-88
2022/06/11 08:54:10;;;;;;;14.20;3.22;;;22.30;94.80;;;;;;5021626;28;20029;-87
2022/06/11 08:56:50;;;;;;;9.32;2.58;;;22.30;94.20;;;;;;5024302;28;20026;-89
2022/06/11 08:59:23;;;;;;;11.43;2.70;;;22.30;94.30;;;;;;5019791;28;20057;-89
2022/06/11 09:01:55;;;;;;;11.93;3.03;;;22.40;93.80;;;;;;5018038;28;20295;-89
2022/06/11 09:04:48;;;;;;;13.75;3.30;;;22.50;94.10;;;;;;5018522;28;20030;-88
2022/06/11 09:07:37;;;;;;;11.80;3.10;;;22.50;94.10;;;;;;5020219;28;20033;-88
2022/06/11 09:10:29;;;;;;;14.68;3.60;;;22.60;94.30;;;;;;5001297;28;20018;-89
2022/06/11 09:13:26;;;;;;;15.18;3.60;;;22.60;93.80;;;;;;5032901;28;20085;-89
2022/06/11 09:16:16;;;;;;;14.23;3.25;;;22.70;93.40;;;;;;5022982;28;20105;-89
2022/06/11 09:19:00;;;;;;;12.25;3.40;;;22.70;93.10;;;;;;5026436;28;20549;-88
2022/06/11 09:22:15;;;;;;;15.75;3.30;;;22.70;93.10;;;;;;5015583;28;20101;-86
2022/06/11 09:25:09;;;;;;;12.00;2.85;;;22.80;93.20;;;;;;4998898;28;20045;-85
2022/06/11 09:27:56;;;;;;;15.60;4.25;;;22.80;91.80;;;;;;5019427;28;20033;-86
2022/06/11 09:30:47;;;;;;;14.45;3.63;;;22.80;92.00;;;;;;4996420;28;20026;-86
2022/06/11 09:33:37;;;;;;;13.60;4.05;;;22.80;91.10;;;;;;5013505;28;20520;-85
2022/06/11 09:36:06;;;;;;;14.20;3.43;;;22.80;91.30;;;;;;5019657;28;20018;-84
2022/06/11 09:38:56;;;;;;;16.05;3.60;;;22.80;91.40;;;;;;5022328;28;20752;-90
2022/06/11 09:42:07;;;;;;;12.13;3.60;;;22.80;91.20;;;;;;5017985;28;20022;-92
2022/06/11 09:45:01;;;;;;;10.23;3.30;;;22.90;91.10;;;;;;5018331;28;20045;-91
2022/06/11 09:47:45;;;;;;;12.52;3.42;;;22.90;91.10;;;;;;5004855;28;20038;-90
2022/06/11 09:50:45;;;;;;;12.95;3.38;;;23.00;91.60;;;;;;5003530;28;20164;-93
2022/06/11 09:53:45;;;;;;;13.25;3.78;;;23.10;91.80;;;;;;5016907;28;20050;-91
2022/06/11 09:56:24;;;;;;;16.85;4.15;;;23.10;91.80;;;;;;5022128;28;20037;-91
2022/06/11 09:59:05;;;;;;;11.70;3.75;;;23.20;92.10;;;;;;5041871;28;20053;-91
2022/06/11 10:02:16;;;;;;;;;;;;;;;;;;;;;
2022/06/11 10:04:45;;;;;;;17.75;3.95;;;23.30;90.90;;;;;;5007839;28;20098;-91
2022/06/11 10:07:38;;;;;;;13.32;3.97;;;23.30;90.90;;;;;;5022164;28;20029;-94
2022/06/11 10:10:12;;;;;;;13.13;4.13;;;23.30;90.60;;;;;;5021278;28;20032;-94
2022/06/11 10:12:48;;;;;;;13.45;3.22;;;23.30;90.70;;;;;;5019471;28;20045;-93
2022/06/11 10:15:38;;;;;;;16.60;4.63;;;23.40;90.70;;;;;;5019796;28;20372;-91
2022/06/11 10:18:31;;;;;;;16.03;4.17;;;23.40;90.40;;;;;;5024237;28;20030;-91
2022/06/11 10:21:20;;;;;;;11.45;3.75;;;23.40;90.30;;;;;;5019107;28;20044;-92
2022/06/11 10:24:34;;;;;;;;;;;;;;;;;;;;;
2022/06/11 10:27:56;;;;;;;;;;;;;;;;;;;;;
2022/06/11 10:34:37;;;;;;;;;;;;;;;;;;;;;
2022/06/11 10:38:00;;;;;;;14.43;3.72;;;23.70;90.80;;;;;;4989029;28;20114;-93
2022/06/11 10:45:09;;;;;;;17.08;3.63;;;23.90;90.80;;;;;;4923099;29;20516;-92
2022/06/11 10:48:25;;;;;;;;;;;;;;;;;;;;;
2022/06/11 10:50:56;;;;;;;13.23;3.15;;;24.00;89.70;;;;;;5019657;28;20173;-90
2022/06/11 10:53:41;;;;;;;11.80;3.20;;;24.00;88.80;;;;;;5027748;28;20030;-92
2022/06/11 10:56:45;;;;;;;;;;;;;;;;;;;;;
2022/06/11 10:59:30;;;;;;;14.75;3.33;;;24.10;86.80;;;;;;5036939;28;20381;-94
2022/06/11 11:02:55;;;;;;;15.23;3.63;;;24.10;88.10;;;;;;5021661;28;20029;-94
2022/06/11 11:12:36;;;;;;;12.18;3.50;;;24.20;87.80;;;;;;5039749;28;20040;-93
2022/06/11 11:15:45;;;;;;;14.60;4.10;;;24.30;86.70;;;;;;5001732;28;20022;-94
2022/06/11 11:19:11;;;;;;;;;;;;;;;;;;;;;
2022/06/11 11:21:52;;;;;;;13.10;3.10;;;24.30;86.70;;;;;;4924838;29;20165;-93
2022/06/11 11:24:38;;;;;;;11.93;3.53;;;24.40;86.40;;;;;;4981816;28;20122;-91
2022/06/11 11:31:16;;;;;;;;;;;;;;;;;;;;;
2022/06/11 11:34:45;;;;;;;18.42;3.75;;;24.50;85.40;;;;;;4985034;28;20038;-95
2022/06/11 11:37:16;;;;;;;13.15;3.42;;;24.60;84.60;;;;;;4948588;28;20027;-90
2022/06/11 11:40:02;;;;;;;;;;;;;;;;;;;;;
2022/06/11 11:43:07;;;;;;;;;;;;;;;;;;;;;
2022/06/11 11:45:55;;;;;;;10.80;2.90;;;24.70;83.70;;;;;;4996228;28;20019;-89
2022/06/11 11:48:48;;;;;;;11.85;3.08;;;24.80;83.60;;;;;;4994010;28;20030;-91
2022/06/11 11:51:34;;;;;;;15.10;3.20;;;24.80;82.70;;;;;;4996508;28;20327;-89
2022/06/11 11:54:17;;;;;;;11.43;3.33;;;24.90;82.20;;;;;;4996938;28;20078;-91
2022/06/11 11:57:29;;;;;;;;;;;;;;;;;;;;;
2022/06/11 12:04:38;;;;;;;;;;;;;;;;;;;;;
2022/06/11 12:07:42;;;;;;;12.88;3.00;;;25.00;81.60;;;;;;4976268;28;20390;-92
2022/06/11 12:11:08;;;;;;;;;;;;;;;;;;;;;
2022/06/11 12:13:51;;;;;;;13.23;3.70;;;25.20;83.20;;;;;;4953227;28;20027;-89
2022/06/11 12:17:10;;;;;;;;;;;;;;;;;;;;;
2022/06/11 12:23:38;;;;;;;14.70;3.70;;;25.50;83.30;;;;;;4951224;28;20058;-88
2022/06/11 12:36:05;;;;;;;14.48;3.35;;;25.70;81.00;;;;;;4936058;29;20043;-89
2022/06/11 12:39:05;;;;;;;16.83;4.15;;;25.70;80.10;;;;;;4974670;28;20134;-91
2022/06/11 12:41:42;;;;;;;14.38;3.95;;;25.80;79.90;;;;;;5006060;28;20033;-89
2022/06/11 12:44:32;;;;;;;16.10;3.67;;;25.70;78.40;;;;;;5014117;28;20025;-91
2022/06/11 12:50:58;;;;;;;12.18;2.88;;;25.80;80.00;;;;;;4950530;29;20059;-93
2022/06/11 12:54:12;;;;;;;13.25;3.28;;;25.90;80.00;;;;;;4965114;29;20027;-92
2022/06/11 12:57:18;;;;;;;;;;;;;;;;;;;;;
2022/06/11 13:00:18;;;;;;;;;;;25.90;79.40;;;;;;4954800;28;20110;-94
2022/06/11 13:11:36;;;;;;;12.00;3.38;;;26.00;78.10;;;;;;4969422;28;20087;-91
2022/06/11 13:14:39;;;;;;;15.15;3.55;;;26.10;77.60;;;;;;4957230;28;20115;-91
2022/06/11 13:17:50;;;;;;;11.30;3.28;;;26.10;75.80;;;;;;4947788;29;20047;-91
2022/06/11 13:20:34;;;;;;;9.90;2.72;;;26.00;76.30;;;;;;4965307;29;20031;-91
2022/06/11 13:23:39;;;;;;;9.13;2.45;;;26.00;76.10;;;;;;4950617;29;20031;-92
2022/06/11 13:26:22;;;;;;;12.55;3.60;;;26.00;77.70;;;;;;4939830;29;20074;-93
2022/06/11 13:28:48;;;;;;;9.18;3.00;;;26.10;77.60;;;;;;4927285;29;20119;-91
2022/06/11 13:31:41;;;;;;;9.50;2.30;;;26.10;77.90;;;;;;4942733;29;20039;-91
2022/06/11 13:34:22;;;;;;;9.43;2.90;;;26.10;78.00;;;;;;4931274;29;20188;-90
2022/06/11 13:37:26;;;;;;;9.90;2.88;;;26.20;77.00;;;;;;4939827;29;20039;-91
2022/06/11 13:40:38;;;;;;;;;;;;;;;;;;;;;
2022/06/11 13:47:21;;;;;;;9.85;2.95;;;26.30;76.50;;;;;;4943136;29;20031;-91
2022/06/11 13:50:25;;;;;;;8.52;2.38;;;26.30;75.40;;;;;;4981670;28;20034;-91
2022/06/11 13:56:27;;;;;;;12.27;3.40;;;26.40;75.80;;;;;;4981660;28;20029;-92
2022/06/11 13:59:31;;;;;;;9.52;3.17;;;26.40;75.60;;;;;;4969925;28;20129;-91
2022/06/11 14:02:51;;;;;;;10.63;2.97;;;26.50;75.00;;;;;;4961302;28;20091;-91
2022/06/11 14:05:21;;;;;;;15.65;3.33;;;26.60;73.40;;;;;;4903561;29;20039;-90
2022/06/11 14:08:23;;;;;;;9.77;3.08;;;26.60;73.90;;;;;;4956262;28;20212;-93
2022/06/11 14:10:55;;;;;;;12.27;3.10;;;26.60;74.30;;;;;;4957138;28;20051;-90
2022/06/11 14:30:37;;;;;;;12.00;2.70;;;26.60;72.60;;;;;;4928010;29;20035;-94
2022/06/11 14:33:26;;;;;;;9.93;2.55;;;26.70;72.40;;;;;;4915114;29;20071;-95
2022/06/11 14:35:54;;;;;;;10.10;2.65;;;26.70;72.00;;;;;;4941621;28;20031;-93
2022/06/11 14:38:32;;;;;;;13.52;3.50;;;26.70;71.90;;;;;;4973688;28;20030;-90
2022/06/11 14:41:38;;;;;;;;;;;;;;;;;;;;;
2022/06/11 14:44:20;;;;;;;12.05;3.15;;;26.80;71.50;;;;;;4957462;29;20481;-94
2022/06/11 14:47:25;;;;;;;33.22;5.28;;;26.80;71.60;;;;;;4951334;29;20112;-94
2022/06/11 14:49:52;;;;;;;9.68;2.78;;;26.80;72.10;;;;;;4987113;28;20037;-95
2022/06/11 14:52:21;;;;;;;10.15;2.28;;;26.80;71.60;;;;;;4990426;28;20026;-93
2022/06/11 14:55:01;;;;;;;12.75;3.78;;;26.90;72.10;;;;;;4987682;28;20041;-94
2022/06/11 14:58:15;;;;;;;10.75;2.75;;;26.90;71.70;;;;;;4986576;28;20089;-95
2022/06/11 15:01:02;;;;;;;9.18;2.50;;;26.90;71.30;;;;;;4911846;29;20071;-94
2022/06/11 15:04:28;;;;;;;10.60;3.40;;;27.00;72.20;;;;;;4984525;28;20357;-93
2022/06/11 15:07:29;;;;;;;8.35;2.95;;;27.00;69.90;;;;;;4958391;28;20484;-90
2022/06/11 15:10:20;;;;;;;13.63;3.65;;;27.00;70.10;;;;;;4965211;28;20050;-93